sensor_id;sensor_type;location;lat;lon;timestamp;P1;durP1;ratioP1;P2;durP2;ratioP2
67193;SDS011;54121;53.508;49.422;2023-02-01T00:00:30;14.73;;;8.02;;
67193;SDS011;54121;53.508;49.422;2023-02-01T00:02:58;25.65;;;9.45;;
67193;SDS011;54121;53.508;49.422;2023-02-01T00:05:25;22.27;;;12.50;;
67193;SDS011;54121;53.508;49.422;2023-02-01T00:07:51;20.85;;;8.00;;
67193;SDS011;54121;53.508;49.422;2023-02-01T00:10:18;17.65;;;7.93;;
67193;SDS011;54121;53.508;49.422;2023-02-01T00:12:44;17.60;;;8.00;;
67193;SDS011;54121;53.508;49.422;2023-02-01T00:15:11;23.48;;;10.30;;
67193;SDS011;54121;53.508;49.422;2023-02-01T00:17:37;19.67;;;10.02;;
67193;SDS011;54121;53.508;49.422;2023-02-01T00:20:04;15.70;;;8.02;;
67193;SDS011;54121;53.508;49.422;2023-02-01T00:22:31;15.52;;;7.68;;
67193;SDS011;54121;53.508;49.422;2023-02-01T00:24:58;16.48;;;8.60;;
67193;SDS011;54121;53.508;49.422;2023-02-01T00:27:24;17.20;;;8.52;;
67193;SDS011;54121;53.508;49.422;2023-02-01T00:29:51;17.42;;;8.45;;
67193;SDS011;54121;53.508;49.422;2023-02-01T00:32:19;16.15;;;7.57;;
67193;SDS011;54121;53.508;49.422;2023-02-01T00:34:45;17.30;;;7.95;;
67193;SDS011;54121;53.508;49.422;2023-02-01T00:37:12;17.20;;;7.43;;
67193;SDS011;54121;53.508;49.422;2023-02-01T00:39:38;15.80;;;7.68;;
67193;SDS011;54121;53.508;49.422;2023-02-01T00:42:05;19.38;;;7.97;;
67193;SDS011;54121;53.508;49.422;2023-02-01T00:44:31;21.52;;;9.45;;
67193;SDS011;54121;53.508;49.422;2023-02-01T00:47:00;18.02;;;8.90;;
67193;SDS011;54121;53.508;49.422;2023-02-01T00:49:26;16.95;;;6.88;;
67193;SDS011;54121;53.508;49.422;2023-02-01T00:51:53;16.52;;;8.27;;
67193;SDS011;54121;53.508;49.422;2023-02-01T00:54:20;17.73;;;7.70;;
67193;SDS011;54121;53.508;49.422;2023-02-01T00:56:47;15.95;;;7.47;;
67193;SDS011;54121;53.508;49.422;2023-02-01T00:59:13;16.35;;;7.22;;
67193;SDS011;54121;53.508;49.422;2023-02-01T01:01:40;17.02;;;8.25;;
67193;SDS011;54121;53.508;49.422;2023-02-01T01:04:06;22.85;;;9.35;;
67193;SDS011;54121;53.508;49.422;2023-02-01T01:06:33;18.13;;;8.35;;
67193;SDS011;54121;53.508;49.422;2023-02-01T01:09:01;22.75;;;8.45;;
67193;SDS011;54121;53.508;49.422;2023-02-01T01:11:31;14.35;;;7.15;;
67193;SDS011;54121;53.508;49.422;2023-02-01T01:13:59;13.87;;;6.27;;
67193;SDS011;54121;53.508;49.422;2023-02-01T01:16:27;23.98;;;9.18;;
67193;SDS011;54121;53.508;49.422;2023-02-01T01:18:56;17.25;;;8.02;;
67193;SDS011;54121;53.508;49.422;2023-02-01T01:21:23;15.68;;;7.00;;
67193;SDS011;54121;53.508;49.422;2023-02-01T01:23:50;18.17;;;8.52;;
67193;SDS011;54121;53.508;49.422;2023-02-01T01:26:18;16.40;;;8.02;;
67193;SDS011;54121;53.508;49.422;2023-02-01T01:28:46;20.33;;;8.00;;
67193;SDS011;54121;53.508;49.422;2023-02-01T01:31:13;19.20;;;6.50;;
67193;SDS011;54121;53.508;49.422;2023-02-01T01:33:41;17.80;;;9.40;;
67193;SDS011;54121;53.508;49.422;2023-02-01T01:36:09;18.58;;;10.15;;
67193;SDS011;54121;53.508;49.422;2023-02-01T01:38:37;18.15;;;9.40;;
67193;SDS011;54121;53.508;49.422;2023-02-01T01:41:05;21.38;;;9.63;;
67193;SDS011;54121;53.508;49.422;2023-02-01T01:46:52;16.27;;;7.07;;
67193;SDS011;54121;53.508;49.422;2023-02-01T01:49:20;21.90;;;10.30;;
67193;SDS011;54121;53.508;49.422;2023-02-01T01:56:51;18.05;;;7.80;;
67193;SDS011;54121;53.508;49.422;2023-02-01T01:59:22;17.38;;;8.27;;
67193;SDS011;54121;53.508;49.422;2023-02-01T02:01:50;17.95;;;9.10;;
67193;SDS011;54121;53.508;49.422;2023-02-01T02:04:17;22.65;;;7.90;;
67193;SDS011;54121;53.508;49.422;2023-02-01T02:06:48;20.90;;;10.00;;
67193;SDS011;54121;53.508;49.422;2023-02-01T02:09:27;17.98;;;7.90;;
67193;SDS011;54121;53.508;49.422;2023-02-01T02:11:54;17.95;;;8.57;;
67193;SDS011;54121;53.508;49.422;2023-02-01T02:14:21;15.95;;;6.88;;
67193;SDS011;54121;53.508;49.422;2023-02-01T02:31:30;17.63;;;8.50;;
67193;SDS011;54121;53.508;49.422;2023-02-01T02:34:25;15.10;;;6.30;;
67193;SDS011;54121;53.508;49.422;2023-02-01T02:37:21;15.63;;;8.63;;
67193;SDS011;54121;53.508;49.422;2023-02-01T02:43:05;21.88;;;8.23;;
67193;SDS011;54121;53.508;49.422;2023-02-01T02:46:10;19.50;;;8.35;;
67193;SDS011;54121;53.508;49.422;2023-02-01T02:49:05;19.52;;;8.38;;
67193;SDS011;54121;53.508;49.422;2023-02-01T02:52:21;15.05;;;6.05;;
67193;SDS011;54121;53.508;49.422;2023-02-01T02:55:02;22.67;;;8.18;;
67193;SDS011;54121;53.508;49.422;2023-02-01T02:57:37;17.48;;;8.52;;
67193;SDS011;54121;53.508;49.422;2023-02-01T03:00:30;16.83;;;7.07;;
67193;SDS011;54121;53.508;49.422;2023-02-01T03:03:18;16.20;;;8.48;;
67193;SDS011;54121;53.508;49.422;2023-02-01T03:06:02;25.15;;;9.80;;
67193;SDS011;54121;53.508;49.422;2023-02-01T03:08:31;16.17;;;7.32;;
67193;SDS011;54121;53.508;49.422;2023-02-01T03:11:11;21.75;;;10.50;;
67193;SDS011;54121;53.508;49.422;2023-02-01T03:13:59;23.63;;;8.68;;
67193;SDS011;54121;53.508;49.422;2023-02-01T03:16:41;16.58;;;6.80;;
67193;SDS011;54121;53.508;49.422;2023-02-01T03:19:29;23.67;;;11.05;;
67193;SDS011;54121;53.508;49.422;2023-02-01T03:24:41;23.58;;;8.45;;
67193;SDS011;54121;53.508;49.422;2023-02-01T03:27:24;17.48;;;7.00;;
67193;SDS011;54121;53.508;49.422;2023-02-01T03:32:43;16.23;;;6.57;;
67193;SDS011;54121;53.508;49.422;2023-02-01T03:35:29;16.88;;;7.82;;
67193;SDS011;54121;53.508;49.422;2023-02-01T03:38:13;19.40;;;8.50;;
67193;SDS011;54121;53.508;49.422;2023-02-01T03:40:56;20.38;;;8.27;;
67193;SDS011;54121;53.508;49.422;2023-02-01T03:43:49;18.33;;;7.05;;
67193;SDS011;54121;53.508;49.422;2023-02-01T03:46:30;18.50;;;8.02;;
67193;SDS011;54121;53.508;49.422;2023-02-01T03:49:08;19.95;;;8.30;;
67193;SDS011;54121;53.508;49.422;2023-02-01T03:51:38;19.75;;;8.60;;
67193;SDS011;54121;53.508;49.422;2023-02-01T03:54:06;23.08;;;11.77;;
67193;SDS011;54121;53.508;49.422;2023-02-01T03:56:37;20.98;;;7.43;;
67193;SDS011;54121;53.508;49.422;2023-02-01T03:59:10;16.27;;;6.30;;
67193;SDS011;54121;53.508;49.422;2023-02-01T04:01:37;18.25;;;7.97;;
67193;SDS011;54121;53.508;49.422;2023-02-01T04:04:03;28.30;;;8.43;;
67193;SDS011;54121;53.508;49.422;2023-02-01T04:06:30;20.90;;;8.68;;
67193;SDS011;54121;53.508;49.422;2023-02-01T04:08:56;24.92;;;7.72;;
67193;SDS011;54121;53.508;49.422;2023-02-01T04:11:23;23.77;;;9.27;;
67193;SDS011;54121;53.508;49.422;2023-02-01T04:13:49;18.05;;;6.50;;
67193;SDS011;54121;53.508;49.422;2023-02-01T04:16:15;22.50;;;11.25;;
67193;SDS011;54121;53.508;49.422;2023-02-01T04:18:42;15.75;;;6.00;;
67193;SDS011;54121;53.508;49.422;2023-02-01T04:21:08;22.58;;;12.20;;
67193;SDS011;54121;53.508;49.422;2023-02-01T04:23:35;19.63;;;8.50;;
67193;SDS011;54121;53.508;49.422;2023-02-01T04:26:12;10.90;;;6.03;;
67193;SDS011;54121;53.508;49.422;2023-02-01T04:28:39;14.45;;;5.90;;
67193;SDS011;54121;53.508;49.422;2023-02-01T04:31:05;9.25;;;4.13;;
67193;SDS011;54121;53.508;49.422;2023-02-01T04:33:32;14.85;;;7.38;;
67193;SDS011;54121;53.508;49.422;2023-02-01T04:35:58;16.58;;;8.20;;
67193;SDS011;54121;53.508;49.422;2023-02-01T04:38:25;18.55;;;8.50;;
67193;SDS011;54121;53.508;49.422;2023-02-01T04:40:52;21.20;;;9.20;;
67193;SDS011;54121;53.508;49.422;2023-02-01T04:43:18;23.63;;;9.77;;
67193;SDS011;54121;53.508;49.422;2023-02-01T04:45:48;21.33;;;10.32;;
67193;SDS011;54121;53.508;49.422;2023-02-01T04:50:43;14.40;;;6.40;;
67193;SDS011;54121;53.508;49.422;2023-02-01T04:53:13;14.80;;;6.78;;
67193;SDS011;54121;53.508;49.422;2023-02-01T04:55:40;14.02;;;6.90;;
67193;SDS011;54121;53.508;49.422;2023-02-01T04:58:14;20.45;;;7.90;;
67193;SDS011;54121;53.508;49.422;2023-02-01T05:00:40;17.05;;;7.13;;
67193;SDS011;54121;53.508;49.422;2023-02-01T05:03:12;18.27;;;8.02;;
67193;SDS011;54121;53.508;49.422;2023-02-01T05:05:51;19.85;;;9.35;;
67193;SDS011;54121;53.508;49.422;2023-02-01T05:08:23;22.83;;;9.18;;
67193;SDS011;54121;53.508;49.422;2023-02-01T05:10:50;22.90;;;10.23;;
67193;SDS011;54121;53.508;49.422;2023-02-01T05:13:17;22.60;;;9.70;;
67193;SDS011;54121;53.508;49.422;2023-02-01T05:16:02;18.45;;;9.13;;
67193;SDS011;54121;53.508;49.422;2023-02-01T05:18:50;19.35;;;9.00;;
67193;SDS011;54121;53.508;49.422;2023-02-01T05:21:22;25.73;;;9.18;;
67193;SDS011;54121;53.508;49.422;2023-02-01T05:23:49;18.33;;;8.82;;
67193;SDS011;54121;53.508;49.422;2023-02-01T05:26:34;16.55;;;7.93;;
67193;SDS011;54121;53.508;49.422;2023-02-01T05:29:01;17.02;;;7.57;;
67193;SDS011;54121;53.508;49.422;2023-02-01T05:31:28;18.35;;;8.15;;
67193;SDS011;54121;53.508;49.422;2023-02-01T05:33:54;24.83;;;11.40;;
67193;SDS011;54121;53.508;49.422;2023-02-01T05:36:21;17.88;;;8.65;;
67193;SDS011;54121;53.508;49.422;2023-02-01T05:38:47;17.00;;;7.80;;
67193;SDS011;54121;53.508;49.422;2023-02-01T05:41:14;17.13;;;7.00;;
67193;SDS011;54121;53.508;49.422;2023-02-01T05:43:40;16.92;;;8.85;;
67193;SDS011;54121;53.508;49.422;2023-02-01T05:46:06;13.60;;;7.25;;
67193;SDS011;54121;53.508;49.422;2023-02-01T05:48:41;17.90;;;7.38;;
67193;SDS011;54121;53.508;49.422;2023-02-01T05:51:14;16.85;;;9.43;;
67193;SDS011;54121;53.508;49.422;2023-02-01T05:53:40;18.30;;;8.75;;
67193;SDS011;54121;53.508;49.422;2023-02-01T05:56:18;15.32;;;8.23;;
67193;SDS011;54121;53.508;49.422;2023-02-01T05:58:51;13.68;;;6.85;;
67193;SDS011;54121;53.508;49.422;2023-02-01T06:01:17;19.77;;;9.93;;
67193;SDS011;54121;53.508;49.422;2023-02-01T06:03:54;13.80;;;6.68;;
67193;SDS011;54121;53.508;49.422;2023-02-01T06:06:26;16.55;;;7.43;;
67193;SDS011;54121;53.508;49.422;2023-02-01T06:08:53;13.55;;;8.43;;
67193;SDS011;54121;53.508;49.422;2023-02-01T06:11:19;14.85;;;7.68;;
67193;SDS011;54121;53.508;49.422;2023-02-01T06:13:58;14.32;;;7.55;;
67193;SDS011;54121;53.508;49.422;2023-02-01T06:16:25;16.70;;;8.57;;
67193;SDS011;54121;53.508;49.422;2023-02-01T06:18:52;15.90;;;8.98;;
67193;SDS011;54121;53.508;49.422;2023-02-01T06:21:19;16.30;;;8.57;;
67193;SDS011;54121;53.508;49.422;2023-02-01T06:23:52;17.75;;;8.80;;
67193;SDS011;54121;53.508;49.422;2023-02-01T06:26:20;14.77;;;9.73;;
67193;SDS011;54121;53.508;49.422;2023-02-01T06:28:52;18.42;;;9.02;;
67193;SDS011;54121;53.508;49.422;2023-02-01T06:31:25;16.05;;;8.38;;
67193;SDS011;54121;53.508;49.422;2023-02-01T06:33:51;14.50;;;8.10;;
67193;SDS011;54121;53.508;49.422;2023-02-01T06:36:19;13.75;;;8.70;;
67193;SDS011;54121;53.508;49.422;2023-02-01T06:38:58;13.90;;;8.35;;
67193;SDS011;54121;53.508;49.422;2023-02-01T06:41:25;13.32;;;7.95;;
67193;SDS011;54121;53.508;49.422;2023-02-01T06:44:04;14.00;;;8.70;;
67193;SDS011;54121;53.508;49.422;2023-02-01T06:46:52;18.25;;;9.77;;
67193;SDS011;54121;53.508;49.422;2023-02-01T06:49:25;13.27;;;7.60;;
67193;SDS011;54121;53.508;49.422;2023-02-01T06:51:52;13.75;;;8.02;;
67193;SDS011;54121;53.508;49.422;2023-02-01T06:54:24;17.80;;;8.70;;
67193;SDS011;54121;53.508;49.422;2023-02-01T06:57:06;13.07;;;7.22;;
67193;SDS011;54121;53.508;49.422;2023-02-01T06:59:38;14.98;;;8.82;;
67193;SDS011;54121;53.508;49.422;2023-02-01T07:02:23;15.73;;;7.70;;
67193;SDS011;54121;53.508;49.422;2023-02-01T07:05:23;17.50;;;10.10;;
67193;SDS011;54121;53.508;49.422;2023-02-01T07:07:50;14.30;;;8.32;;
67193;SDS011;54121;53.508;49.422;2023-02-01T07:10:16;12.50;;;8.93;;
67193;SDS011;54121;53.508;49.422;2023-02-01T07:12:43;14.73;;;9.95;;
67193;SDS011;54121;53.508;49.422;2023-02-01T07:15:09;12.00;;;6.72;;
67193;SDS011;54121;53.508;49.422;2023-02-01T07:17:36;11.93;;;7.70;;
67193;SDS011;54121;53.508;49.422;2023-02-01T07:20:03;12.43;;;7.20;;
67193;SDS011;54121;53.508;49.422;2023-02-01T07:22:30;14.05;;;6.97;;
67193;SDS011;54121;53.508;49.422;2023-02-01T07:24:56;16.40;;;8.52;;
67193;SDS011;54121;53.508;49.422;2023-02-01T07:27:23;10.35;;;6.63;;
67193;SDS011;54121;53.508;49.422;2023-02-01T07:29:51;12.43;;;6.57;;
67193;SDS011;54121;53.508;49.422;2023-02-01T07:32:18;15.63;;;7.10;;
67193;SDS011;54121;53.508;49.422;2023-02-01T07:34:44;11.98;;;6.55;;
67193;SDS011;54121;53.508;49.422;2023-02-01T07:37:11;11.55;;;7.75;;
67193;SDS011;54121;53.508;49.422;2023-02-01T07:39:37;12.02;;;7.35;;
67193;SDS011;54121;53.508;49.422;2023-02-01T07:42:04;16.33;;;7.75;;
67193;SDS011;54121;53.508;49.422;2023-02-01T07:44:32;17.20;;;8.07;;
67193;SDS011;54121;53.508;49.422;2023-02-01T07:46:58;14.52;;;7.57;;
67193;SDS011;54121;53.508;49.422;2023-02-01T07:49:25;14.48;;;7.88;;
67193;SDS011;54121;53.508;49.422;2023-02-01T07:51:51;12.05;;;8.00;;
67193;SDS011;54121;53.508;49.422;2023-02-01T07:54:18;14.20;;;8.18;;
67193;SDS011;54121;53.508;49.422;2023-02-01T07:56:44;12.63;;;7.03;;
67193;SDS011;54121;53.508;49.422;2023-02-01T07:59:11;15.80;;;6.85;;
67193;SDS011;54121;53.508;49.422;2023-02-01T08:01:37;14.02;;;8.25;;
67193;SDS011;54121;53.508;49.422;2023-02-01T08:04:04;13.75;;;7.82;;
67193;SDS011;54121;53.508;49.422;2023-02-01T08:06:31;13.73;;;7.90;;
67193;SDS011;54121;53.508;49.422;2023-02-01T08:09:00;11.93;;;7.38;;
67193;SDS011;54121;53.508;49.422;2023-02-01T08:11:27;12.65;;;8.13;;
67193;SDS011;54121;53.508;49.422;2023-02-01T08:13:54;14.57;;;7.53;;
67193;SDS011;54121;53.508;49.422;2023-02-01T08:16:21;14.30;;;6.57;;
67193;SDS011;54121;53.508;49.422;2023-02-01T08:18:49;13.18;;;7.82;;
67193;SDS011;54121;53.508;49.422;2023-02-01T08:21:17;12.68;;;7.43;;
67193;SDS011;54121;53.508;49.422;2023-02-01T08:23:48;12.00;;;7.07;;
67193;SDS011;54121;53.508;49.422;2023-02-01T08:26:17;14.10;;;7.15;;
67193;SDS011;54121;53.508;49.422;2023-02-01T08:28:47;13.15;;;8.50;;
67193;SDS011;54121;53.508;49.422;2023-02-01T08:31:16;14.88;;;7.65;;
67193;SDS011;54121;53.508;49.422;2023-02-01T08:33:47;15.10;;;8.07;;
67193;SDS011;54121;53.508;49.422;2023-02-01T08:36:19;14.45;;;7.18;;
67193;SDS011;54121;53.508;49.422;2023-02-01T08:38:46;9.90;;;6.80;;
67193;SDS011;54121;53.508;49.422;2023-02-01T08:41:13;11.52;;;7.75;;
67193;SDS011;54121;53.508;49.422;2023-02-01T08:43:44;13.10;;;7.55;;
67193;SDS011;54121;53.508;49.422;2023-02-01T08:46:19;12.25;;;7.90;;
67193;SDS011;54121;53.508;49.422;2023-02-01T08:48:46;11.02;;;6.68;;
67193;SDS011;54121;53.508;49.422;2023-02-01T08:51:14;11.55;;;7.18;;
67193;SDS011;54121;53.508;49.422;2023-02-01T08:53:42;11.95;;;6.93;;
67193;SDS011;54121;53.508;49.422;2023-02-01T08:56:10;12.68;;;7.15;;
67193;SDS011;54121;53.508;49.422;2023-02-01T08:58:37;16.17;;;7.55;;
67193;SDS011;54121;53.508;49.422;2023-02-01T09:01:08;13.00;;;7.93;;
67193;SDS011;54121;53.508;49.422;2023-02-01T09:03:38;11.93;;;6.63;;
67193;SDS011;54121;53.508;49.422;2023-02-01T09:06:09;10.02;;;6.35;;
67193;SDS011;54121;53.508;49.422;2023-02-01T09:08:37;11.15;;;6.95;;
67193;SDS011;54121;53.508;49.422;2023-02-01T09:11:06;12.82;;;7.65;;
67193;SDS011;54121;53.508;49.422;2023-02-01T09:13:36;11.50;;;5.70;;
67193;SDS011;54121;53.508;49.422;2023-02-01T09:16:03;10.43;;;7.18;;
67193;SDS011;54121;53.508;49.422;2023-02-01T09:18:29;11.23;;;6.47;;
67193;SDS011;54121;53.508;49.422;2023-02-01T09:20:56;12.63;;;6.85;;
67193;SDS011;54121;53.508;49.422;2023-02-01T09:23:23;11.45;;;6.47;;
67193;SDS011;54121;53.508;49.422;2023-02-01T09:25:49;12.15;;;6.60;;
67193;SDS011;54121;53.508;49.422;2023-02-01T09:28:17;9.02;;;5.95;;
67193;SDS011;54121;53.508;49.422;2023-02-01T09:30:44;12.98;;;5.13;;
67193;SDS011;54121;53.508;49.422;2023-02-01T09:33:11;11.50;;;5.60;;
67193;SDS011;54121;53.508;49.422;2023-02-01T09:35:38;10.27;;;6.15;;
67193;SDS011;54121;53.508;49.422;2023-02-01T09:38:04;9.93;;;6.18;;
67193;SDS011;54121;53.508;49.422;2023-02-01T09:40:33;10.13;;;5.75;;
67193;SDS011;54121;53.508;49.422;2023-02-01T09:48:19;10.32;;;6.35;;
67193;SDS011;54121;53.508;49.422;2023-02-01T09:50:58;10.20;;;4.90;;
67193;SDS011;54121;53.508;49.422;2023-02-01T09:53:35;9.35;;;6.07;;
67193;SDS011;54121;53.508;49.422;2023-02-01T09:56:12;12.07;;;6.65;;
67193;SDS011;54121;53.508;49.422;2023-02-01T09:58:52;7.90;;;6.15;;
67193;SDS011;54121;53.508;49.422;2023-02-01T10:01:26;9.88;;;5.90;;
67193;SDS011;54121;53.508;49.422;2023-02-01T10:03:56;8.50;;;4.78;;
67193;SDS011;54121;53.508;49.422;2023-02-01T10:09:28;10.80;;;6.07;;
67193;SDS011;54121;53.508;49.422;2023-02-01T10:15:02;11.00;;;5.70;;
67193;SDS011;54121;53.508;49.422;2023-02-01T10:23:00;8.57;;;5.82;;
67193;SDS011;54121;53.508;49.422;2023-02-01T10:26:35;11.35;;;5.47;;
67193;SDS011;54121;53.508;49.422;2023-02-01T10:28:52;10.90;;;5.93;;
67193;SDS011;54121;53.508;49.422;2023-02-01T10:31:33;12.65;;;5.70;;
67193;SDS011;54121;53.508;49.422;2023-02-01T10:34:11;10.93;;;5.90;;
67193;SDS011;54121;53.508;49.422;2023-02-01T10:36:55;10.93;;;5.60;;
67193;SDS011;54121;53.508;49.422;2023-02-01T10:39:46;11.52;;;4.60;;
67193;SDS011;54121;53.508;49.422;2023-02-01T10:42:14;7.87;;;4.90;;
67193;SDS011;54121;53.508;49.422;2023-02-01T10:44:45;7.70;;;5.47;;
67193;SDS011;54121;53.508;49.422;2023-02-01T10:47:14;9.52;;;5.32;;
67193;SDS011;54121;53.508;49.422;2023-02-01T10:49:49;8.60;;;5.40;;
67193;SDS011;54121;53.508;49.422;2023-02-01T10:52:38;13.38;;;5.18;;
67193;SDS011;54121;53.508;49.422;2023-02-01T10:58:04;9.38;;;5.00;;
67193;SDS011;54121;53.508;49.422;2023-02-01T11:00:34;8.52;;;4.70;;
67193;SDS011;54121;53.508;49.422;2023-02-01T11:14:17;7.72;;;4.60;;
67193;SDS011;54121;53.508;49.422;2023-02-01T11:16:48;7.38;;;4.00;;
67193;SDS011;54121;53.508;49.422;2023-02-01T11:19:20;6.10;;;3.90;;
67193;SDS011;54121;53.508;49.422;2023-02-01T11:21:50;5.75;;;3.60;;
67193;SDS011;54121;53.508;49.422;2023-02-01T11:24:25;7.97;;;4.30;;
67193;SDS011;54121;53.508;49.422;2023-02-01T11:26:55;8.38;;;4.00;;
67193;SDS011;54121;53.508;49.422;2023-02-01T11:29:23;7.97;;;4.13;;
67193;SDS011;54121;53.508;49.422;2023-02-01T11:31:58;6.53;;;4.22;;
67193;SDS011;54121;53.508;49.422;2023-02-01T11:37:03;6.82;;;4.13;;
67193;SDS011;54121;53.508;49.422;2023-02-01T11:39:32;6.00;;;3.60;;
67193;SDS011;54121;53.508;49.422;2023-02-01T11:42:13;5.80;;;3.70;;
67193;SDS011;54121;53.508;49.422;2023-02-01T11:44:44;9.00;;;3.60;;
67193;SDS011;54121;53.508;49.422;2023-02-01T11:49:57;9.70;;;3.97;;
67193;SDS011;54121;53.508;49.422;2023-02-01T11:52:43;6.68;;;3.92;;
67193;SDS011;54121;53.508;49.422;2023-02-01T11:55:33;4.35;;;3.03;;
67193;SDS011;54121;53.508;49.422;2023-02-01T11:59:04;6.32;;;3.63;;
67193;SDS011;54121;53.508;49.422;2023-02-01T12:23:37;9.05;;;2.88;;
67193;SDS011;54121;53.508;49.422;2023-02-01T12:26:36;6.97;;;3.03;;
67193;SDS011;54121;53.508;49.422;2023-02-01T12:31:45;6.50;;;3.00;;
67193;SDS011;54121;53.508;49.422;2023-02-01T12:40:36;8.30;;;3.38;;
67193;SDS011;54121;53.508;49.422;2023-02-01T12:43:13;6.95;;;2.92;;
67193;SDS011;54121;53.508;49.422;2023-02-01T12:46:14;6.75;;;3.50;;
67193;SDS011;54121;53.508;49.422;2023-02-01T12:48:57;6.65;;;3.78;;
67193;SDS011;54121;53.508;49.422;2023-02-01T12:51:35;14.07;;;3.15;;
67193;SDS011;54121;53.508;49.422;2023-02-01T12:56:50;7.88;;;3.75;;
67193;SDS011;54121;53.508;49.422;2023-02-01T13:02:20;7.20;;;3.55;;
67193;SDS011;54121;53.508;49.422;2023-02-01T13:07:53;7.95;;;4.18;;
67193;SDS011;54121;53.508;49.422;2023-02-01T13:10:33;6.82;;;4.05;;
67193;SDS011;54121;53.508;49.422;2023-02-01T13:18:37;11.15;;;5.25;;
67193;SDS011;54121;53.508;49.422;2023-02-01T13:21:10;5.60;;;4.30;;
67193;SDS011;54121;53.508;49.422;2023-02-01T13:23:43;12.60;;;6.50;;
67193;SDS011;54121;53.508;49.422;2023-02-01T13:26:12;7.95;;;4.18;;
67193;SDS011;54121;53.508;49.422;2023-02-01T13:42:52;15.95;;;10.07;;
67193;SDS011;54121;53.508;49.422;2023-02-01T13:45:31;12.82;;;7.10;;
67193;SDS011;54121;53.508;49.422;2023-02-01T13:48:02;14.35;;;8.35;;
67193;SDS011;54121;53.508;49.422;2023-02-01T14:00:39;10.20;;;6.32;;
67193;SDS011;54121;53.508;49.422;2023-02-01T14:03:09;13.85;;;7.47;;
67193;SDS011;54121;53.508;49.422;2023-02-01T14:08:12;13.68;;;5.80;;
67193;SDS011;54121;53.508;49.422;2023-02-01T14:10:58;12.60;;;5.55;;
67193;SDS011;54121;53.508;49.422;2023-02-01T14:18:48;10.38;;;4.43;;
67193;SDS011;54121;53.508;49.422;2023-02-01T14:39:54;9.30;;;4.85;;
67193;SDS011;54121;53.508;49.422;2023-02-01T14:42:59;9.02;;;5.18;;
67193;SDS011;54121;53.508;49.422;2023-02-01T14:53:01;11.35;;;4.97;;
67193;SDS011;54121;53.508;49.422;2023-02-01T14:58:48;11.25;;;4.85;;
67193;SDS011;54121;53.508;49.422;2023-02-01T15:01:30;11.75;;;5.53;;
67193;SDS011;54121;53.508;49.422;2023-02-01T15:04:15;10.40;;;4.70;;
67193;SDS011;54121;53.508;49.422;2023-02-01T15:11:55;10.45;;;5.00;;
67193;SDS011;54121;53.508;49.422;2023-02-01T15:14:43;10.38;;;5.20;;
67193;SDS011;54121;53.508;49.422;2023-02-01T15:17:18;13.50;;;5.55;;
67193;SDS011;54121;53.508;49.422;2023-02-01T15:19:56;14.05;;;5.88;;
67193;SDS011;54121;53.508;49.422;2023-02-01T15:22:35;10.32;;;5.00;;
67193;SDS011;54121;53.508;49.422;2023-02-01T15:25:45;15.05;;;5.78;;
67193;SDS011;54121;53.508;49.422;2023-02-01T15:28:36;11.15;;;5.82;;
67193;SDS011;54121;53.508;49.422;2023-02-01T15:31:08;12.27;;;5.00;;
67193;SDS011;54121;53.508;49.422;2023-02-01T15:33:56;10.95;;;5.50;;
67193;SDS011;54121;53.508;49.422;2023-02-01T15:36:23;11.15;;;5.35;;
67193;SDS011;54121;53.508;49.422;2023-02-01T15:39:12;16.10;;;7.63;;
67193;SDS011;54121;53.508;49.422;2023-02-01T15:41:53;9.80;;;5.47;;
67193;SDS011;54121;53.508;49.422;2023-02-01T15:44:44;10.68;;;5.05;;
67193;SDS011;54121;53.508;49.422;2023-02-01T15:47:17;10.43;;;4.28;;
67193;SDS011;54121;53.508;49.422;2023-02-01T15:49:52;14.65;;;4.70;;
67193;SDS011;54121;53.508;49.422;2023-02-01T15:52:25;8.60;;;4.13;;
67193;SDS011;54121;53.508;49.422;2023-02-01T15:54:59;8.60;;;4.10;;
67193;SDS011;54121;53.508;49.422;2023-02-01T15:57:53;9.60;;;4.38;;
67193;SDS011;54121;53.508;49.422;2023-02-01T16:00:27;10.80;;;4.70;;
67193;SDS011;54121;53.508;49.422;2023-02-01T16:03:03;13.38;;;4.80;;
67193;SDS011;54121;53.508;49.422;2023-02-01T16:08:13;14.05;;;4.53;;
67193;SDS011;54121;53.508;49.422;2023-02-01T16:10:53;11.27;;;3.85;;
67193;SDS011;54121;53.508;49.422;2023-02-01T16:13:25;9.30;;;4.35;;
67193;SDS011;54121;53.508;49.422;2023-02-01T16:15:51;18.73;;;5.95;;
67193;SDS011;54121;53.508;49.422;2023-02-01T16:18:19;12.63;;;5.38;;
67193;SDS011;54121;53.508;49.422;2023-02-01T16:20:46;13.77;;;5.30;;
67193;SDS011;54121;53.508;49.422;2023-02-01T16:23:13;12.05;;;5.05;;
67193;SDS011;54121;53.508;49.422;2023-02-01T16:25:40;10.73;;;4.18;;
67193;SDS011;54121;53.508;49.422;2023-02-01T16:28:18;11.27;;;4.82;;
67193;SDS011;54121;53.508;49.422;2023-02-01T16:30:57;12.85;;;4.97;;
67193;SDS011;54121;53.508;49.422;2023-02-01T16:33:36;18.77;;;4.97;;
67193;SDS011;54121;53.508;49.422;2023-02-01T16:36:02;14.15;;;6.07;;
67193;SDS011;54121;53.508;49.422;2023-02-01T16:38:29;13.73;;;5.00;;
67193;SDS011;54121;53.508;49.422;2023-02-01T16:41:03;10.75;;;5.15;;
67193;SDS011;54121;53.508;49.422;2023-02-01T16:43:31;9.52;;;3.88;;
67193;SDS011;54121;53.508;49.422;2023-02-01T16:46:03;10.35;;;4.57;;
67193;SDS011;54121;53.508;49.422;2023-02-01T16:48:42;15.38;;;5.20;;
67193;SDS011;54121;53.508;49.422;2023-02-01T16:51:14;16.10;;;5.47;;
67193;SDS011;54121;53.508;49.422;2023-02-01T16:53:43;12.13;;;4.55;;
67193;SDS011;54121;53.508;49.422;2023-02-01T16:56:17;21.95;;;5.65;;
67193;SDS011;54121;53.508;49.422;2023-02-01T16:58:48;15.10;;;6.70;;
67193;SDS011;54121;53.508;49.422;2023-02-01T17:01:26;12.07;;;5.70;;
67193;SDS011;54121;53.508;49.422;2023-02-01T17:03:53;11.60;;;5.63;;
67193;SDS011;54121;53.508;49.422;2023-02-01T17:09:29;12.93;;;6.13;;
67193;SDS011;54121;53.508;49.422;2023-02-01T17:11:56;14.85;;;5.30;;
67193;SDS011;54121;53.508;49.422;2023-02-01T17:14:22;13.32;;;5.15;;
67193;SDS011;54121;53.508;49.422;2023-02-01T17:16:50;11.52;;;5.03;;
67193;SDS011;54121;53.508;49.422;2023-02-01T17:19:23;9.63;;;4.85;;
67193;SDS011;54121;53.508;49.422;2023-02-01T17:21:50;15.27;;;5.82;;
67193;SDS011;54121;53.508;49.422;2023-02-01T17:24:20;14.90;;;5.18;;
67193;SDS011;54121;53.508;49.422;2023-02-01T17:26:55;13.00;;;5.82;;
67193;SDS011;54121;53.508;49.422;2023-02-01T17:29:29;13.82;;;5.65;;
67193;SDS011;54121;53.508;49.422;2023-02-01T17:32:08;13.43;;;4.72;;
67193;SDS011;54121;53.508;49.422;2023-02-01T17:35:23;17.17;;;5.80;;
67193;SDS011;54121;53.508;49.422;2023-02-01T17:37:59;15.00;;;6.13;;
67193;SDS011;54121;53.508;49.422;2023-02-01T17:40:42;15.07;;;6.05;;
67193;SDS011;54121;53.508;49.422;2023-02-01T17:43:11;17.13;;;5.90;;
67193;SDS011;54121;53.508;49.422;2023-02-01T17:46:04;14.27;;;5.93;;
67193;SDS011;54121;53.508;49.422;2023-02-01T17:48:49;13.93;;;5.95;;
67193;SDS011;54121;53.508;49.422;2023-02-01T17:51:16;13.57;;;5.78;;
67193;SDS011;54121;53.508;49.422;2023-02-01T17:53:45;15.80;;;6.25;;
67193;SDS011;54121;53.508;49.422;2023-02-01T17:56:18;15.00;;;5.35;;
67193;SDS011;54121;53.508;49.422;2023-02-01T17:58:46;19.13;;;5.88;;
67193;SDS011;54121;53.508;49.422;2023-02-01T18:01:13;14.80;;;5.82;;
67193;SDS011;54121;53.508;49.422;2023-02-01T18:03:42;26.98;;;6.80;;